Hovedside
METAR-TAF:

METAR-TAF

Lufthavner :

Kronoby lufthavn

Karleby, Finland

breddegrad: 63-43N, lengdegrad: 023-09E, høyde over havet: 25 m

Gjeldene værobservasjon

Denne rapporten ble laget for 15 minutter siden, klokken 19:20 UTC
Vind 8 kt fra Sør-sørvest, skiftende mellom Sør og Vest-sørvest
Temperatur 2°C
Luftfuktighet 69%
Trykk 997 hPa
Sikt 10 km eller mer
ingen skyer under 1500 m og ingen bygeskyer

METAR: EFKK 231920Z AUTO 21008KT 190V250 CAVOK 02/M03 Q0997

Tid: 21:35 (19:35 UTC)

Varsel

Denne rapporten ble laget for 4 timer og 41 minutter siden, klokken 14:54 UTC
Varsel gyldig fra 23. klokken 15 UTC til 23. klokken 17 UTC
Vind 12 kt fra Sør-sørvest
Sikt 10 km eller mer
Få skyer i en høyde av 1500 ft
Brutte skyer i en høyde av 4000 ft
Midlertidig
fra 23. klokken 15 UTC til 23. klokken 17 UTC
Få skyer i en høyde av 3000 ft, Bygeskyer.

TAF: EFKK 231454Z 2315/2317 20012KT 9999 FEW015 BKN040 TEMPO 2315/2317 FEW030CB

Værobservasjoner og værvarsel for over 4000 flyplasser (METAR- og TAF-rapporter).

Tilgjengelige stasjoner er representert av de røde og gule prikkene på kartet.

Hold musepekeren over prikken for å se navnet på stasjonen.

Klikk så for å se værobservasjoner og -varsler.

For å forandre kartet kan du klikke på den grønne knappen med svart kryss for å zoome inn, på den grønne knappen med strek for å zoome ut, eller på de grønne pilene for å se tilstøtende kart.


METAR-TAF: